createdAt,value
2019-01-30T00:02:57.472Z,98097.16
2019-01-30T00:06:00.980Z,98086.61
2019-01-30T00:09:08.827Z,98082.69
2019-01-30T00:12:12.344Z,98080.40
2019-01-30T00:15:15.706Z,98075.80
2019-01-30T00:18:19.300Z,98072.27
2019-01-30T00:21:22.782Z,98067.06
2019-01-30T00:24:25.800Z,98058.11
2019-01-30T00:27:29.456Z,98050.38
2019-01-30T00:30:32.683Z,98043.94
2019-01-30T00:33:35.876Z,98039.66
2019-01-30T00:36:39.137Z,98032.00
2019-01-30T00:39:43.137Z,98029.86
2019-01-30T00:42:46.331Z,98025.49
2019-01-30T00:45:49.562Z,98027.49
2019-01-30T00:48:53.043Z,98023.23
2019-01-30T00:51:56.947Z,98016.41
2019-01-30T00:55:00.524Z,98015.02
2019-01-30T00:58:04.883Z,98010.25
2019-01-30T01:01:07.852Z,98013.59
2019-01-30T01:04:11.386Z,98007.91
2019-01-30T01:07:14.663Z,98010.86
2019-01-30T01:10:18.470Z,98013.17
2019-01-30T01:13:21.392Z,98001.28
2019-01-30T01:16:24.332Z,97994.34
2019-01-30T01:19:27.578Z,97994.59
2019-01-30T01:22:30.506Z,97994.11
2019-01-30T01:25:33.687Z,97991.08
2019-01-30T01:28:36.634Z,97990.54
2019-01-30T01:31:39.910Z,97987.42
2019-01-30T01:34:43.163Z,97985.97
2019-01-30T01:37:46.072Z,97975.56
2019-01-30T01:40:48.985Z,97977.87
2019-01-30T01:43:51.953Z,97970.34
2019-01-30T01:46:54.852Z,97970.94
2019-01-30T01:49:58.104Z,97972.22
2019-01-30T01:53:01.319Z,97966.46
2019-01-30T01:56:05.020Z,97963.36
2019-01-30T01:59:07.956Z,97955.09
2019-01-30T02:02:11.528Z,97954.56
2019-01-30T02:05:17.610Z,97949.53
2019-01-30T02:08:21.626Z,97938.45
2019-01-30T02:11:24.892Z,97935.45
2019-01-30T02:14:28.187Z,97928.20
2019-01-30T02:17:31.107Z,97919.50
2019-01-30T02:20:34.294Z,97914.80
2019-01-30T02:23:37.495Z,97905.25
2019-01-30T02:26:40.401Z,97895.97
2019-01-30T02:29:43.358Z,97890.52
2019-01-30T02:32:46.965Z,97892.72
2019-01-30T02:35:49.900Z,97888.20
2019-01-30T02:38:53.368Z,97886.06
2019-01-30T02:41:56.396Z,97876.41
2019-01-30T02:44:59.612Z,97879.23
2019-01-30T02:48:03.134Z,97869.88
2019-01-30T02:51:06.155Z,97859.92
2019-01-30T02:54:09.067Z,97864.43
2019-01-30T02:57:12.018Z,97858.17
2019-01-30T03:00:23.135Z,97848.95
2019-01-30T03:03:26.139Z,97849.02
2019-01-30T03:06:29.443Z,97849.94
2019-01-30T03:09:32.657Z,97840.59
2019-01-30T03:12:35.964Z,97837.65
2019-01-30T03:15:38.870Z,97836.45
2019-01-30T03:18:41.794Z,97839.39
2019-01-30T03:21:46.877Z,97848.72
2019-01-30T03:24:50.444Z,97847.27
2019-01-30T03:27:53.789Z,97846.48
2019-01-30T03:30:56.710Z,97845.57
2019-01-30T03:33:59.909Z,97834.16
2019-01-30T03:37:02.825Z,97831.81
2019-01-30T03:40:08.991Z,97834.29
2019-01-30T03:43:12.266Z,97832.91
2019-01-30T03:46:15.534Z,97833.70
2019-01-30T03:49:18.847Z,97828.45
2019-01-30T03:52:22.084Z,97831.02
2019-01-30T03:55:25.370Z,97824.55
2019-01-30T03:58:28.707Z,97821.50
2019-01-30T04:01:32.249Z,97819.81
2019-01-30T04:04:35.503Z,97819.13
2019-01-30T04:07:38.418Z,97817.20
2019-01-30T04:10:41.359Z,97817.05
2019-01-30T04:13:44.947Z,97819.42
2019-01-30T04:16:48.530Z,97816.77
2019-01-30T04:19:52.334Z,97810.64
2019-01-30T04:22:55.259Z,97806.97
2019-01-30T04:25:58.546Z,97808.56
2019-01-30T04:29:01.807Z,97812.05
2019-01-30T04:32:05.542Z,97802.81
2019-01-30T04:35:09.068Z,97806.43
2019-01-30T04:38:12.729Z,97804.73
2019-01-30T04:41:16.034Z,97797.03
2019-01-30T04:44:19.307Z,97792.66
2019-01-30T04:47:22.503Z,97789.23
2019-01-30T04:50:26.125Z,97787.50
2019-01-30T04:53:29.309Z,97786.48
2019-01-30T04:56:32.535Z,97780.81
2019-01-30T04:59:35.971Z,97779.39
2019-01-30T05:02:40.384Z,97781.14
2019-01-30T05:05:43.305Z,97777.63
2019-01-30T05:08:46.220Z,97771.47
2019-01-30T05:11:49.471Z,97764.94
2019-01-30T05:14:52.379Z,97770.88
2019-01-30T05:17:55.937Z,97763.97
2019-01-30T05:20:59.193Z,97750.61
2019-01-30T05:24:02.474Z,97756.70
2019-01-30T05:27:05.992Z,97751.06
2019-01-30T05:30:14.838Z,97750.89
2019-01-30T05:33:18.459Z,97742.80
2019-01-30T05:36:21.380Z,97741.05
2019-01-30T05:39:24.303Z,97744.69
2019-01-30T05:42:27.616Z,97751.77
2019-01-30T05:45:30.880Z,97746.54
2019-01-30T05:48:33.801Z,97751.94
2019-01-30T05:51:36.787Z,97755.23
2019-01-30T05:54:40.434Z,97742.96
2019-01-30T05:57:43.555Z,97739.39
2019-01-30T06:00:46.831Z,97742.30
2019-01-30T06:03:49.754Z,97743.71
2019-01-30T06:06:53.007Z,97740.66
2019-01-30T06:09:55.919Z,97737.50
2019-01-30T06:12:58.842Z,97733.66
2019-01-30T06:16:02.672Z,97733.36
2019-01-30T06:19:05.749Z,97729.45
2019-01-30T06:22:09.344Z,97734.10
2019-01-30T06:25:13.298Z,97734.98
2019-01-30T06:28:16.278Z,97736.34
2019-01-30T06:31:19.203Z,97741.75
2019-01-30T06:34:22.132Z,97742.11
2019-01-30T06:37:25.420Z,97737.27
2019-01-30T06:40:31.940Z,97731.52
2019-01-30T06:43:35.219Z,97731.33
2019-01-30T06:46:38.420Z,97727.37
2019-01-30T06:49:41.974Z,97719.95
2019-01-30T06:52:45.225Z,97724.43
2019-01-30T06:55:48.534Z,97722.55
2019-01-30T06:58:52.852Z,97721.25
2019-01-30T07:01:55.767Z,97718.47
2019-01-30T07:04:58.998Z,97720.78
2019-01-30T07:08:01.977Z,97715.31
2019-01-30T07:11:10.737Z,97715.65
2019-01-30T07:14:09.739Z,97718.22
2019-01-30T07:17:13.015Z,97712.02
2019-01-30T07:20:16.462Z,97713.73
2019-01-30T07:23:19.699Z,97710.79
2019-01-30T07:26:22.896Z,97707.52
2019-01-30T07:29:25.803Z,97714.37
2019-01-30T07:32:29.080Z,97705.38
2019-01-30T07:35:32.004Z,97709.55
2019-01-30T07:38:35.188Z,97710.58
2019-01-30T07:41:38.456Z,97704.92
2019-01-30T07:44:50.431Z,97703.70
2019-01-30T07:47:46.527Z,97706.97
2019-01-30T07:50:49.566Z,97713.48
2019-01-30T07:53:54.769Z,97715.17
2019-01-30T07:56:57.575Z,97713.48
2019-01-30T08:00:00.524Z,97713.04
2019-01-30T08:03:03.895Z,97714.61
2019-01-30T08:06:06.826Z,97716.70
2019-01-30T08:09:09.718Z,97703.66
2019-01-30T08:12:12.947Z,97697.99
2019-01-30T08:15:17.331Z,97702.31
2019-01-30T08:18:20.519Z,97701.39
2019-01-30T08:21:24.777Z,97694.00
2019-01-30T08:24:28.189Z,97701.17
2019-01-30T08:27:31.602Z,97703.09
2019-01-30T08:30:36.415Z,97703.86
2019-01-30T08:33:40.027Z,97708.22
2019-01-30T08:36:43.219Z,97711.91
2019-01-30T08:39:46.795Z,97707.03
2019-01-30T08:42:52.148Z,97699.44
2019-01-30T08:45:55.036Z,97701.24
2019-01-30T08:48:58.362Z,97702.27
2019-01-30T08:52:01.420Z,97699.02
2019-01-30T08:55:04.889Z,97707.41
2019-01-30T08:58:08.166Z,97702.22
2019-01-30T09:01:11.075Z,97699.80
2019-01-30T09:04:14.349Z,97702.82
2019-01-30T09:07:17.595Z,97695.95
2019-01-30T09:10:22.367Z,97690.53
2019-01-30T09:13:25.784Z,97691.64
2019-01-30T09:16:29.431Z,97684.94
2019-01-30T09:19:32.931Z,97692.13
2019-01-30T09:22:36.170Z,97684.02
2019-01-30T09:25:39.382Z,97686.68
2019-01-30T09:28:43.415Z,97676.64
2019-01-30T09:31:46.323Z,97684.23
2019-01-30T09:34:49.671Z,97689.38
2019-01-30T09:37:52.819Z,97688.78
2019-01-30T09:40:56.022Z,97688.02
2019-01-30T09:43:58.947Z,97696.81
2019-01-30T09:47:02.183Z,97698.02
2019-01-30T09:50:08.972Z,97695.83
2019-01-30T09:53:11.948Z,97699.14
2019-01-30T09:56:15.609Z,97705.86
2019-01-30T09:59:19.295Z,97704.20
2019-01-30T10:02:22.489Z,97703.34
2019-01-30T10:05:25.808Z,97703.97
2019-01-30T10:08:29.447Z,97709.66
2019-01-30T10:11:32.722Z,97712.81
2019-01-30T10:14:36.000Z,97712.81
2019-01-30T10:17:38.931Z,97712.41
2019-01-30T10:20:44.623Z,97720.67
2019-01-30T10:23:47.897Z,97718.03
2019-01-30T10:26:51.208Z,97712.22
2019-01-30T10:29:54.468Z,97713.20
2019-01-30T10:32:57.468Z,97717.97
2019-01-30T10:36:00.427Z,97713.49
2019-01-30T10:39:09.630Z,97717.17
2019-01-30T10:42:12.541Z,97714.95
2019-01-30T10:45:15.771Z,97714.78
2019-01-30T10:48:18.745Z,97705.77
2019-01-30T10:51:21.673Z,97701.97
2019-01-30T10:54:25.852Z,97701.76
2019-01-30T10:57:29.061Z,97707.45
2019-01-30T11:00:39.340Z,97697.88
2019-01-30T11:03:42.367Z,97692.66
2019-01-30T11:06:45.899Z,97696.16
2019-01-30T11:09:49.290Z,97697.59
2019-01-30T11:12:52.490Z,97691.80
2019-01-30T11:15:55.422Z,97696.48
2019-01-30T11:18:58.316Z,97696.70
2019-01-30T11:22:01.260Z,97691.62
2019-01-30T11:25:09.289Z,97696.29
2019-01-30T11:28:12.334Z,97694.16
2019-01-30T11:31:15.554Z,97687.36
2019-01-30T11:34:18.511Z,97682.39
2019-01-30T11:37:21.555Z,97683.22
2019-01-30T11:40:25.422Z,97678.71
2019-01-30T11:43:29.230Z,97680.27
2019-01-30T11:46:33.145Z,97678.17
2019-01-30T11:49:36.789Z,97672.35
2019-01-30T11:52:39.821Z,97681.48
2019-01-30T11:55:43.108Z,97675.87
2019-01-30T11:58:46.033Z,97683.06
2019-01-30T12:01:48.981Z,97680.36
2019-01-30T12:04:52.299Z,97677.31
2019-01-30T12:07:55.481Z,97679.02
2019-01-30T12:10:58.810Z,97677.11
2019-01-30T12:14:02.623Z,97666.91
2019-01-30T12:17:05.542Z,97676.04
2019-01-30T12:20:09.709Z,97665.91
2019-01-30T12:23:13.206Z,97676.75
2019-01-30T12:26:16.395Z,97673.29
2019-01-30T12:29:19.687Z,97671.33
2019-01-30T12:32:22.912Z,97670.38
2019-01-30T12:35:26.621Z,97675.22
2019-01-30T12:38:29.859Z,97677.66
2019-01-30T12:41:35.655Z,97675.63
2019-01-30T12:44:37.848Z,97675.22
2019-01-30T12:47:41.161Z,97679.05
2019-01-30T12:50:44.423Z,97675.63
2019-01-30T12:53:47.341Z,97674.08
2019-01-30T12:56:50.275Z,97671.58
2019-01-30T12:59:53.790Z,97665.27
2019-01-30T13:02:56.970Z,97673.03
2019-01-30T13:05:59.897Z,97670.04
2019-01-30T13:09:07.065Z,97667.22
2019-01-30T13:12:10.744Z,97666.70
2019-01-30T13:15:15.983Z,97666.67
2019-01-30T13:18:19.282Z,97674.64
2019-01-30T13:21:22.500Z,97679.98
2019-01-30T13:24:26.388Z,97682.77
2019-01-30T13:27:29.595Z,97686.67
2019-01-30T13:30:37.844Z,97684.37
2019-01-30T13:33:41.087Z,97687.98
2019-01-30T13:36:44.011Z,97693.70
2019-01-30T13:39:46.952Z,97694.16
2019-01-30T13:42:49.860Z,97692.09
2019-01-30T13:45:53.102Z,97693.76
2019-01-30T13:48:56.334Z,97693.09
2019-01-30T13:51:59.370Z,97698.06
2019-01-30T13:55:03.065Z,97701.98
2019-01-30T13:58:05.946Z,97696.67
2019-01-30T14:01:17.328Z,97702.23
2019-01-30T14:04:13.974Z,97707.45
2019-01-30T14:07:16.924Z,97711.52
2019-01-30T14:10:20.196Z,97714.22
2019-01-30T14:13:23.070Z,97716.83
2019-01-30T14:16:26.037Z,97718.48
2019-01-30T14:19:29.332Z,97714.55
2019-01-30T14:22:32.601Z,97714.98
2019-01-30T14:25:37.035Z,97717.62
2019-01-30T14:28:39.996Z,97714.52
2019-01-30T14:31:43.632Z,97714.25
2019-01-30T14:34:47.579Z,97719.59
2019-01-30T14:37:51.243Z,97719.00
2019-01-30T14:40:54.537Z,97726.69
2019-01-30T14:43:57.819Z,97726.72
2019-01-30T14:47:00.793Z,97724.93
2019-01-30T14:50:06.778Z,97739.11
2019-01-30T14:53:10.048Z,97729.71
2019-01-30T14:56:12.990Z,97734.95
2019-01-30T14:59:16.245Z,97728.75
2019-01-30T15:02:19.349Z,97738.30
2019-01-30T15:05:23.068Z,97743.52
2019-01-30T15:08:28.285Z,97743.16
2019-01-30T15:11:31.319Z,97749.68
2019-01-30T15:14:34.272Z,97748.91
2019-01-30T15:17:37.339Z,97747.55
2019-01-30T15:20:40.582Z,97748.44
2019-01-30T15:23:43.883Z,97751.02
2019-01-30T15:26:49.847Z,97756.26
2019-01-30T15:29:53.275Z,97757.02
2019-01-30T15:32:56.222Z,97761.92
2019-01-30T15:35:59.131Z,97760.33
2019-01-30T15:39:02.725Z,97768.14
2019-01-30T15:42:07.825Z,97769.00
2019-01-30T15:45:14.914Z,97768.23
2019-01-30T15:48:17.937Z,97771.44
2019-01-30T15:51:21.220Z,97774.91
2019-01-30T15:54:24.177Z,97771.00
2019-01-30T15:57:27.103Z,97778.78
2019-01-30T16:00:46.447Z,97778.81
2019-01-30T16:03:49.717Z,97787.41
2019-01-30T16:06:52.703Z,97786.52
2019-01-30T16:09:56.618Z,97791.73
2019-01-30T16:12:59.526Z,97792.12
2019-01-30T16:16:04.859Z,97798.66
2019-01-30T16:19:08.185Z,97805.36
2019-01-30T16:22:12.672Z,97807.99
2019-01-30T16:25:18.884Z,97813.36
2019-01-30T16:28:22.210Z,97816.32
2019-01-30T16:31:25.225Z,97818.19
2019-01-30T16:34:28.161Z,97817.51
2019-01-30T16:37:32.475Z,97824.94
2019-01-30T16:40:36.543Z,97819.38
2019-01-30T16:43:40.070Z,97824.17
2019-01-30T16:46:43.251Z,97828.29
2019-01-30T16:49:46.593Z,97826.02
2019-01-30T16:52:49.598Z,97820.16
2019-01-30T16:55:54.040Z,97840.88
2019-01-30T16:58:56.978Z,97842.72
2019-01-30T17:02:01.321Z,97839.88
2019-01-30T17:05:08.371Z,97845.08
2019-01-30T17:08:11.733Z,97858.78
2019-01-30T17:11:15.829Z,97859.63
2019-01-30T17:14:18.789Z,97862.65
2019-01-30T17:17:22.447Z,97862.34
2019-01-30T17:20:31.988Z,97874.44
2019-01-30T17:23:35.121Z,97873.95
2019-01-30T17:26:38.389Z,97873.69
2019-01-30T17:29:41.799Z,97880.42
2019-01-30T17:32:44.736Z,97886.30
2019-01-30T17:35:48.087Z,97884.09
2019-01-30T17:38:51.176Z,97886.49
2019-01-30T17:41:54.163Z,97890.45
2019-01-30T17:44:58.136Z,97898.02
2019-01-30T17:48:01.194Z,97897.47
2019-01-30T17:51:04.214Z,97900.64
2019-01-30T17:54:07.445Z,97902.18
2019-01-30T17:57:10.504Z,97908.88
2019-01-30T18:00:30.956Z,97912.86
2019-01-30T18:03:34.363Z,97910.33
2019-01-30T18:06:37.301Z,97914.22
2019-01-30T18:09:40.583Z,97913.10
2019-01-30T18:12:43.828Z,97916.55
2019-01-30T18:15:47.155Z,97924.20
2019-01-30T18:18:50.681Z,97921.41
2019-01-30T18:21:53.615Z,97925.45
2019-01-30T18:24:57.716Z,97924.77
2019-01-30T18:28:01.411Z,97939.98
2019-01-30T18:31:05.041Z,97931.69
2019-01-30T18:34:07.997Z,97934.16
2019-01-30T18:37:11.305Z,97947.47
2019-01-30T18:40:17.190Z,97947.11
2019-01-30T18:43:21.248Z,97948.95
2019-01-30T18:46:24.607Z,97951.82
2019-01-30T18:49:27.618Z,97954.30
2019-01-30T18:52:30.719Z,97953.55
2019-01-30T18:55:34.213Z,97953.31
2019-01-30T18:58:37.151Z,97961.66
2019-01-30T19:01:40.080Z,97956.86
2019-01-30T19:04:43.850Z,97959.23
2019-01-30T19:07:47.095Z,97959.26
2019-01-30T19:10:50.700Z,97965.54
2019-01-30T19:13:54.231Z,97968.19
2019-01-30T19:16:57.908Z,97971.66
2019-01-30T19:20:01.142Z,97970.23
2019-01-30T19:23:07.055Z,97970.11
2019-01-30T19:26:10.234Z,97975.36
2019-01-30T19:29:13.172Z,97968.59
2019-01-30T19:32:16.122Z,97978.16
2019-01-30T19:35:19.235Z,97971.48
2019-01-30T19:38:22.191Z,97979.63
2019-01-30T19:41:25.168Z,97977.56
2019-01-30T19:44:28.143Z,97973.09
2019-01-30T19:47:31.066Z,97975.56
2019-01-30T19:50:34.071Z,97963.64
2019-01-30T19:53:37.337Z,97988.91
2019-01-30T19:56:40.229Z,97984.56
2019-01-30T19:59:43.467Z,97982.00
2019-01-30T20:02:46.711Z,97984.48
2019-01-30T20:05:50.114Z,97979.64
2019-01-30T20:08:53.448Z,97980.99
2019-01-30T20:11:57.153Z,97984.69
2019-01-30T20:15:00.178Z,97978.89
2019-01-30T20:18:04.023Z,97987.36
2019-01-30T20:21:07.329Z,97986.02
2019-01-30T20:24:10.647Z,97994.45
2019-01-30T20:27:13.593Z,97993.46
2019-01-30T20:30:19.517Z,97998.66
2019-01-30T20:33:22.458Z,97999.41
2019-01-30T20:36:25.424Z,98003.81
2019-01-30T20:39:28.630Z,98000.00
2019-01-30T20:42:31.594Z,97997.89
2019-01-30T20:45:34.517Z,98002.19
2019-01-30T20:48:45.812Z,98006.39
2019-01-30T20:51:42.663Z,98002.06
2019-01-30T20:54:46.310Z,98004.33
2019-01-30T20:57:49.627Z,98009.94
2019-01-30T21:00:52.558Z,98012.23
2019-01-30T21:03:55.624Z,98013.02
2019-01-30T21:06:58.984Z,98020.69
2019-01-30T21:10:02.012Z,98013.77
2019-01-30T21:13:24.837Z,98009.91
2019-01-30T21:16:28.085Z,98009.98
2019-01-30T21:19:31.397Z,98008.59
2019-01-30T21:22:34.628Z,98014.80
2019-01-30T21:25:37.541Z,98019.77
2019-01-30T21:28:40.455Z,98015.86
2019-01-30T21:31:43.366Z,98023.21
2019-01-30T21:34:46.349Z,98027.59
2019-01-30T21:37:49.947Z,98033.45
2019-01-30T21:40:53.932Z,98030.40
2019-01-30T21:43:56.896Z,98035.69
2019-01-30T21:47:01.476Z,98037.34
2019-01-30T21:50:06.392Z,98041.69
2019-01-30T21:53:09.713Z,98040.63
2019-01-30T21:56:12.940Z,98039.33
2019-01-30T21:59:15.860Z,98042.09
2019-01-30T22:02:18.796Z,98049.83
2019-01-30T22:05:22.496Z,98049.05
2019-01-30T22:08:25.431Z,98057.31
2019-01-30T22:11:28.866Z,98051.28
2019-01-30T22:14:31.791Z,98046.48
2019-01-30T22:17:34.992Z,98053.52
2019-01-30T22:20:37.923Z,98055.19
2019-01-30T22:23:41.184Z,98057.13
2019-01-30T22:26:44.089Z,98057.87
2019-01-30T22:29:47.756Z,98059.48
2019-01-30T22:32:50.982Z,98059.87
2019-01-30T22:35:54.005Z,98059.73
2019-01-30T22:38:57.648Z,98062.78
2019-01-30T22:42:02.458Z,98062.45
2019-01-30T22:45:07.716Z,98064.28
2019-01-30T22:48:11.037Z,98052.67
2019-01-30T22:51:13.939Z,98057.03
2019-01-30T22:54:17.504Z,98057.15
2019-01-30T22:57:20.402Z,98063.73
2019-01-30T23:01:07.334Z,98064.20
2019-01-30T23:05:06.127Z,98061.05
2019-01-30T23:08:30.392Z,98066.58
2019-01-30T23:12:13.780Z,98065.03
2019-01-30T23:15:30.492Z,98058.48
2019-01-30T23:18:57.079Z,98064.19
2019-01-30T23:22:22.198Z,98062.47
2019-01-30T23:26:02.862Z,98059.08
2019-01-30T23:30:01.243Z,98061.58
2019-01-30T23:33:48.370Z,98058.11
2019-01-30T23:37:31.722Z,98062.20
2019-01-30T23:41:27.115Z,98054.94
2019-01-30T23:45:14.859Z,98058.29
2019-01-30T23:49:19.616Z,98057.13
2019-01-30T23:53:28.448Z,98061.27
2019-01-30T23:57:31.635Z,98059.15
